Time;durP1;ratioP1;P1;durP2;ratioP2;P2;SDS_P1;SDS_P2;PMS_P1;PMS_P2;Temp;Humidity;BMP_temperature;BMP_pressure;BME280_temperature;BME280_humidity;BME280_pressure;Samples;Min_cycle;Max_cycle;Signal;HPM_P1;HPM_P2
2023/01/15 00:04:50;;;;;;;10.32;5.22;;;;;;;;;;10231838;28;20044;-45
2023/01/15 00:09:51;;;;;;;12.05;5.22;;;;;;;;;;10231614;28;20027;-45
2023/01/15 00:14:52;;;;;;;9.70;5.80;;;;;;;;;;10233427;28;20070;-45
2023/01/15 00:19:52;;;;;;;8.60;5.60;;;;;;;;;;10238122;28;20034;-45
2023/01/15 00:30:15;;;;;;;8.82;4.93;;;;;;;;;;10244710;28;20387;-46
2023/01/15 00:35:19;;;;;;;7.93;5.20;;;;;;;;;;10245753;28;20025;-46
2023/01/15 00:40:21;;;;;;;8.02;5.13;;;;;;;;;;10247514;28;20405;-46
2023/01/15 00:45:22;;;;;;;9.57;4.80;;;;;;;;;;10246971;28;20047;-46
2023/01/15 00:50:23;;;;;;;7.45;5.53;;;;;;;;;;10247009;28;20469;-46
2023/01/15 00:55:24;;;;;;;10.25;5.13;;;;;;;;;;10235951;28;20114;-46
2023/01/15 01:00:25;;;;;;;9.50;5.00;;;;;;;;;;10243995;28;20439;-46
2023/01/15 01:05:25;;;;;;;11.05;5.35;;;;;;;;;;10245440;28;20028;-46
2023/01/15 01:10:27;;;;;;;7.25;5.25;;;;;;;;;;10232971;28;20023;-46
2023/01/15 01:15:27;;;;;;;10.00;5.00;;;;;;;;;;10232511;28;20032;-47
2023/01/15 01:20:28;;;;;;;6.68;4.50;;;;;;;;;;10237794;28;20028;-46
2023/01/15 01:25:29;;;;;;;10.43;5.05;;;;;;;;;;10241711;28;20030;-47
2023/01/15 01:30:29;;;;;;;8.88;5.53;;;;;;;;;;10237155;28;20019;-46
2023/01/15 01:35:30;;;;;;;7.15;5.28;;;;;;;;;;10230053;28;21343;-47
2023/01/15 01:40:31;;;;;;;9.02;4.95;;;;;;;;;;10221677;28;20038;-46
2023/01/15 01:45:32;;;;;;;8.05;5.35;;;;;;;;;;10233229;28;20455;-46
2023/01/15 01:50:35;;;;;;;8.32;5.55;;;;;;;;;;10240799;28;20109;-48
2023/01/15 01:55:37;;;;;;;8.73;5.10;;;;;;;;;;10239569;28;20027;-46
2023/01/15 02:00:42;;;;;;;7.57;4.60;;;;;;;;;;10248601;28;20450;-46
2023/01/15 02:05:51;;;;;;;6.40;4.93;;;;;;;;;;10231340;28;20098;-45
2023/01/15 02:10:54;;;;;;;7.40;4.50;;;;;;;;;;10250389;28;20035;-45
2023/01/15 02:16:10;;;;;;;9.20;5.05;;;;;;;;;;10227137;28;20498;-46
2023/01/15 02:21:29;;;;;;;7.00;4.70;;;;;;;;;;10254127;28;20031;-48
2023/01/15 02:26:51;;;;;;;8.68;4.70;;;;;;;;;;10239631;28;20074;-46
2023/01/15 02:31:52;;;;;;;7.88;4.15;;;;;;;;;;10243024;28;20103;-56
2023/01/15 02:37:03;;;;;;;6.78;4.57;;;;;;;;;;10249123;28;20063;-56
2023/01/15 02:42:07;;;;;;;5.03;4.30;;;;;;;;;;10264544;28;20077;-56
2023/01/15 02:47:09;;;;;;;5.88;4.78;;;;;;;;;;10251748;28;20491;-58
2023/01/15 02:52:25;;;;;;;7.57;4.97;;;;;;;;;;10264301;28;20050;-56
2023/01/15 02:57:31;;;;;;;8.18;4.38;;;;;;;;;;10246769;28;20093;-57
2023/01/15 03:02:38;;;;;;;6.13;4.90;;;;;;;;;;10248240;28;20431;-56
2023/01/15 03:07:46;;;;;;;5.82;4.53;;;;;;;;;;10264733;28;20064;-57
2023/01/15 03:13:01;;;;;;;7.18;4.40;;;;;;;;;;10248359;28;20031;-56
2023/01/15 03:18:05;;;;;;;5.53;4.47;;;;;;;;;;10247680;28;20426;-53
2023/01/15 03:23:11;;;;;;;5.38;4.50;;;;;;;;;;10243548;28;20051;-54
2023/01/15 03:28:16;;;;;;;6.03;4.22;;;;;;;;;;10249341;28;20031;-57
2023/01/15 03:33:18;;;;;;;7.75;4.22;;;;;;;;;;10247627;28;20279;-57
2023/01/15 03:38:40;;;;;;;6.53;4.55;;;;;;;;;;10250600;28;20070;-54
2023/01/15 03:44:15;;;;;;;5.85;3.97;;;;;;;;;;10250788;28;20464;-57
2023/01/15 03:49:37;;;;;;;6.00;4.45;;;;;;;;;;10247347;28;20332;-57
2023/01/15 03:55:00;;;;;;;5.50;4.15;;;;;;;;;;10261611;28;20126;-56
2023/01/15 04:00:45;;;;;;;7.53;4.40;;;;;;;;;;10221593;28;20270;-52
2023/01/15 04:05:49;;;;;;;5.32;4.50;;;;;;;;;;10146761;29;20500;-56
2023/01/15 04:10:55;;;;;;;5.35;3.97;;;;;;;;;;10145691;29;20059;-56
2023/01/15 04:15:57;;;;;;;6.18;4.45;;;;;;;;;;10147740;29;20041;-56
2023/01/15 04:20:57;;;;;;;6.60;4.40;;;;;;;;;;10150120;29;20047;-57
2023/01/15 04:25:58;;;;;;;5.95;4.38;;;;;;;;;;10161900;29;20060;-58
2023/01/15 04:30:59;;;;;;;5.53;3.92;;;;;;;;;;10161075;29;20044;-56
2023/01/15 04:36:01;;;;;;;5.55;3.97;;;;;;;;;;10208945;28;20063;-58
2023/01/15 04:46:23;;;;;;;4.72;4.05;;;;;;;;;;10245095;28;20035;-56
2023/01/15 04:51:24;;;;;;;5.80;3.83;;;;;;;;;;10233385;28;20085;-57
2023/01/15 04:56:25;;;;;;;4.22;3.40;;;;;;;;;;10246854;28;20054;-57
2023/01/15 05:01:25;;;;;;;4.65;4.03;;;;;;;;;;10237767;28;20028;-57
2023/01/15 05:06:26;;;;;;;5.45;4.32;;;;;;;;;;10242349;28;20024;-57
2023/01/15 05:11:27;;;;;;;5.40;3.83;;;;;;;;;;10245324;28;20395;-56
2023/01/15 05:16:29;;;;;;;4.22;3.65;;;;;;;;;;10233295;28;20027;-57
2023/01/15 05:21:34;;;;;;;5.90;3.80;;;;;;;;;;10250150;28;20497;-56
2023/01/15 05:26:35;;;;;;;4.43;3.78;;;;;;;;;;10241178;28;20509;-57
2023/01/15 05:31:35;;;;;;;5.05;3.92;;;;;;;;;;10253119;28;20032;-52
2023/01/15 05:36:36;;;;;;;4.97;3.78;;;;;;;;;;10252459;28;20043;-52
2023/01/15 05:41:48;;;;;;;5.63;4.10;;;;;;;;;;10228658;28;20031;-56
2023/01/15 05:46:53;;;;;;;4.45;3.80;;;;;;;;;;10253010;28;20499;-53
2023/01/15 05:51:54;;;;;;;5.05;3.78;;;;;;;;;;10228524;28;20557;-58
2023/01/15 05:56:55;;;;;;;3.75;3.38;;;;;;;;;;10251739;28;20034;-56
2023/01/15 06:01:56;;;;;;;5.30;4.18;;;;;;;;;;10251270;28;20054;-57
2023/01/15 06:06:57;;;;;;;4.55;3.70;;;;;;;;;;10240226;28;20029;-55
2023/01/15 06:11:58;;;;;;;3.95;3.40;;;;;;;;;;10240734;28;20030;-57
2023/01/15 06:16:58;;;;;;;4.40;3.40;;;;;;;;;;10247151;28;20094;-56
2023/01/15 06:21:59;;;;;;;5.03;3.65;;;;;;;;;;10249970;28;20627;-57
2023/01/15 06:27:00;;;;;;;5.93;3.75;;;;;;;;;;10247204;28;20032;-56
2023/01/15 06:32:00;;;;;;;4.07;3.35;;;;;;;;;;10248880;28;20217;-58
2023/01/15 06:37:01;;;;;;;4.40;3.53;;;;;;;;;;10253052;28;20495;-57
2023/01/15 06:47:21;;;;;;;10.40;5.28;;;;;;;;;;10249231;28;20414;-58
2023/01/15 06:52:23;;;;;;;5.95;3.70;;;;;;;;;;10244498;28;20113;-58
2023/01/15 06:57:24;;;;;;;11.40;4.63;;;;;;;;;;10248426;28;20478;-58
2023/01/15 07:02:24;;;;;;;6.93;4.63;;;;;;;;;;10229349;28;20038;-57
2023/01/15 07:07:27;;;;;;;9.07;4.55;;;;;;;;;;10245805;28;20482;-56
2023/01/15 07:12:29;;;;;;;11.32;4.82;;;;;;;;;;10244194;28;20067;-55
2023/01/15 07:17:29;;;;;;;5.70;4.45;;;;;;;;;;10239172;28;20427;-56
2023/01/15 07:22:30;;;;;;;6.22;4.70;;;;;;;;;;10244925;28;20082;-55
2023/01/15 07:27:31;;;;;;;5.80;4.93;;;;;;;;;;10250910;28;20027;-56
2023/01/15 07:32:32;;;;;;;6.43;4.88;;;;;;;;;;10244037;28;20039;-65
2023/01/15 07:37:32;;;;;;;6.22;4.57;;;;;;;;;;10247417;28;20047;-58
2023/01/15 07:53:12;;;;;;;7.95;5.38;;;;;;;;;;10246551;28;20035;-53
2023/01/15 07:58:13;;;;;;;12.27;5.10;;;;;;;;;;10248521;28;20031;-53
2023/01/15 08:03:13;;;;;;;9.88;5.18;;;;;;;;;;10247745;28;20032;-54
2023/01/15 08:08:18;;;;;;;5.53;4.50;;;;;;;;;;10236720;28;20027;-58
2023/01/15 08:18:38;;;;;;;12.57;5.50;;;;;;;;;;10248908;28;20039;-59
2023/01/15 08:23:39;;;;;;;12.75;5.45;;;;;;;;;;10246752;28;20039;-58
2023/01/15 08:28:39;;;;;;;9.02;5.22;;;;;;;;;;10246033;28;20059;-57
2023/01/15 08:33:40;;;;;;;15.52;5.65;;;;;;;;;;10244784;28;20023;-57
2023/01/15 08:38:41;;;;;;;10.00;5.32;;;;;;;;;;10246014;28;20058;-58
2023/01/15 08:43:41;;;;;;;10.75;5.40;;;;;;;;;;10246215;28;20046;-56
2023/01/15 08:48:43;;;;;;;8.57;5.03;;;;;;;;;;10247291;28;20027;-58
2023/01/15 08:53:44;;;;;;;10.95;4.93;;;;;;;;;;10247383;28;20106;-58
2023/01/15 08:58:46;;;;;;;11.77;5.40;;;;;;;;;;10246168;28;20401;-58
2023/01/15 09:03:46;;;;;;;9.30;5.40;;;;;;;;;;10246243;28;20059;-58
2023/01/15 09:08:47;;;;;;;8.90;4.90;;;;;;;;;;10247394;28;20089;-58
2023/01/15 09:13:50;;;;;;;11.50;4.85;;;;;;;;;;10247066;28;20031;-57
2023/01/15 09:18:51;;;;;;;8.48;4.97;;;;;;;;;;10247701;28;20062;-58
2023/01/15 09:23:51;;;;;;;7.88;4.60;;;;;;;;;;10246278;28;20050;-58
2023/01/15 09:28:52;;;;;;;7.60;4.47;;;;;;;;;;10239233;28;20218;-57
2023/01/15 09:33:53;;;;;;;10.18;5.35;;;;;;;;;;10226860;28;20028;-58
2023/01/15 09:38:55;;;;;;;7.03;4.53;;;;;;;;;;10227639;28;20095;-57
2023/01/15 09:44:17;;;;;;;7.03;4.63;;;;;;;;;;10236722;28;20019;-55
2023/01/15 09:49:36;;;;;;;18.25;5.57;;;;;;;;;;10243275;28;20427;-56
2023/01/15 09:54:52;;;;;;;9.18;4.70;;;;;;;;;;10238941;28;20032;-55
2023/01/15 10:00:01;;;;;;;7.97;4.82;;;;;;;;;;10243870;28;20035;-55
2023/01/15 10:05:23;;;;;;;7.78;4.60;;;;;;;;;;10243812;28;20063;-54
2023/01/15 10:10:32;;;;;;;6.97;4.53;;;;;;;;;;10239660;28;20115;-57
2023/01/15 10:15:43;;;;;;;9.10;5.72;;;;;;;;;;10240124;28;20038;-56
2023/01/15 10:21:07;;;;;;;8.20;4.60;;;;;;;;;;10238872;28;20031;-56
2023/01/15 10:26:16;;;;;;;6.22;4.75;;;;;;;;;;10236495;28;20383;-51
2023/01/15 10:31:21;;;;;;;10.13;4.35;;;;;;;;;;10227530;28;20490;-56
2023/01/15 10:36:45;;;;;;;6.95;4.72;;;;;;;;;;10312513;23;20379;-52
2023/01/15 10:42:05;;;;;;;6.18;4.50;;;;;;;;;;10380456;28;20354;-55
2023/01/15 10:47:15;;;;;;;7.43;4.60;;;;;;;;;;10409707;28;20026;-49
2023/01/15 10:52:30;;;;;;;6.65;4.03;;;;;;;;;;10420442;28;20061;-53
2023/01/15 10:57:51;;;;;;;7.97;4.32;;;;;;;;;;10420162;28;20036;-54
2023/01/15 11:03:07;;;;;;;6.47;4.60;;;;;;;;;;10420053;28;20018;-54
2023/01/15 11:08:31;;;;;;;7.53;4.95;;;;;;;;;;10419022;28;20065;-53
2023/01/15 11:24:16;;;;;;;7.82;4.60;;;;;;;;;;10418569;28;20025;-54
2023/01/15 11:29:35;;;;;;;7.88;5.00;;;;;;;;;;10419494;28;20056;-58
2023/01/15 11:34:39;;;;;;;5.95;4.53;;;;;;;;;;10418522;28;20030;-57
2023/01/15 11:39:56;;;;;;;6.28;4.53;;;;;;;;;;10418839;28;20033;-58
2023/01/15 11:55:39;;;;;;;9.80;4.50;;;;;;;;;;10417791;28;20033;-58
2023/01/15 12:00:48;;;;;;;5.78;4.45;;;;;;;;;;10400792;28;20030;-58
2023/01/15 12:06:04;;;;;;;7.57;5.03;;;;;;;;;;10418011;28;20029;-58
2023/01/15 12:11:26;;;;;;;9.30;4.55;;;;;;;;;;10416661;28;20033;-58
2023/01/15 12:17:05;;;;;;;6.35;4.88;;;;;;;;;;10416676;28;20036;-58
2023/01/15 12:22:34;;;;;;;11.95;5.85;;;;;;;;;;10351919;28;20558;-58
2023/01/15 12:27:52;;;;;;;8.18;5.68;;;;;;;;;;10411347;28;20101;-58
2023/01/15 12:33:27;;;;;;;10.80;5.57;;;;;;;;;;10416846;28;20021;-57
2023/01/15 12:38:42;;;;;;;11.48;5.43;;;;;;;;;;10415400;28;20049;-58
2023/01/15 12:49:34;;;;;;;10.25;5.60;;;;;;;;;;10416247;28;20468;-54
2023/01/15 12:55:14;;;;;;;8.18;5.30;;;;;;;;;;10416578;28;20021;-58
2023/01/15 13:00:43;;;;;;;11.07;5.35;;;;;;;;;;10415199;28;20061;-59
2023/01/15 13:06:01;;;;;;;10.45;5.38;;;;;;;;;;10414825;28;20045;-59
2023/01/15 13:11:03;;;;;;;;;;;;;;;;;;10415454;28;20092;-59
2023/01/15 13:16:23;;;;;;;6.25;4.55;;;;;;;;;;10414949;28;19921;-58
2023/01/15 13:21:28;;;;;;;12.02;5.65;;;;;;;;;;10392138;28;20084;-55
2023/01/15 13:26:44;;;;;;;10.77;5.55;;;;;;;;;;10414989;28;20473;-53
2023/01/15 13:31:59;;;;;;;7.65;5.18;;;;;;;;;;10414566;28;20030;-53
2023/01/15 13:37:33;;;;;;;7.97;5.18;;;;;;;;;;10414341;28;20427;-53
2023/01/15 13:42:36;;;;;;;7.47;4.97;;;;;;;;;;10418745;28;20076;-53
2023/01/15 13:47:44;;;;;;;8.35;5.38;;;;;;;;;;10422075;28;20473;-54
2023/01/15 13:52:46;;;;;;;8.40;4.82;;;;;;;;;;10423328;28;20028;-53
2023/01/15 13:57:48;;;;;;;7.07;4.78;;;;;;;;;;10422984;28;20075;-58
2023/01/15 14:02:56;;;;;;;10.40;5.25;;;;;;;;;;10421649;28;20082;-54
2023/01/15 14:08:02;;;;;;;4.90;4.13;;;;;;;;;;10421435;28;20076;-53
2023/01/15 14:13:47;;;;;;;8.45;5.30;;;;;;;;;;10422536;28;20029;-53
2023/01/15 14:19:23;;;;;;;8.35;5.05;;;;;;;;;;10422157;28;20429;-54
2023/01/15 14:25:20;;;;;;;9.93;5.70;;;;;;;;;;10421415;28;20034;-52
2023/01/15 14:31:21;;;;;;;14.68;5.55;;;;;;;;;;10419965;28;20110;-48
2023/01/15 14:36:31;;;;;;;12.73;6.00;;;;;;;;;;10407677;28;20045;-54
2023/01/15 14:43:00;;;;;;;13.40;5.18;;;;;;;;;;10420910;28;20400;-50
2023/01/15 14:47:05;;;;;;;16.05;5.60;;;;;;;;;;10419728;28;20042;-49
2023/01/15 14:52:06;;;;;;;14.68;6.63;;;;;;;;;;10419361;28;20032;-52
2023/01/15 14:57:08;;;;;;;19.50;6.07;;;;;;;;;;10402670;28;20034;-52
2023/01/15 15:02:33;;;;;;;10.75;5.07;;;;;;;;;;10402012;28;20037;-53
2023/01/15 15:07:51;;;;;;;8.43;5.18;;;;;;;;;;10419215;28;20029;-53
2023/01/15 15:13:18;;;;;;;10.65;5.18;;;;;;;;;;10418955;28;20036;-52
2023/01/15 15:19:23;;;;;;;8.43;5.32;;;;;;;;;;10419292;28;20072;-52
2023/01/15 15:24:34;;;;;;;10.25;4.70;;;;;;;;;;10411792;28;20106;-54
2023/01/15 15:29:35;;;;;;;8.82;4.57;;;;;;;;;;10419052;28;20037;-53
2023/01/15 15:34:40;;;;;;;7.35;5.05;;;;;;;;;;10417931;28;20029;-54
2023/01/15 15:39:56;;;;;;;11.45;4.82;;;;;;;;;;10418029;28;20029;-53
2023/01/15 15:50:32;;;;;;;8.98;5.20;;;;;;;;;;10418207;28;20029;-57
2023/01/15 15:55:45;;;;;;;7.35;4.22;;;;;;;;;;10417208;28;20040;-52
2023/01/15 16:00:48;;;;;;;6.53;4.40;;;;;;;;;;10417552;28;20033;-51
2023/01/15 16:06:05;;;;;;;8.52;4.45;;;;;;;;;;10416313;28;20091;-53
2023/01/15 16:11:13;;;;;;;8.15;4.78;;;;;;;;;;10399204;28;20485;-52
2023/01/15 16:16:16;;;;;;;7.18;4.60;;;;;;;;;;10417225;28;20025;-48
2023/01/15 16:21:26;;;;;;;6.53;4.47;;;;;;;;;;10416290;28;20033;-45
2023/01/15 16:26:39;;;;;;;7.10;4.60;;;;;;;;;;10416647;28;20092;-53
2023/01/15 16:31:41;;;;;;;8.23;5.53;;;;;;;;;;10416628;28;20100;-55
2023/01/15 16:36:44;;;;;;;9.50;4.22;;;;;;;;;;10415509;28;20076;-51
2023/01/15 16:41:45;;;;;;;9.57;5.03;;;;;;;;;;10415662;28;20123;-51
2023/01/15 16:46:54;;;;;;;10.10;4.38;;;;;;;;;;10415803;28;20025;-46
2023/01/15 16:51:57;;;;;;;;;;;;;;;;;;10399399;28;20053;-53
2023/01/15 16:57:05;;;;;;;6.60;4.07;;;;;;;;;;10415297;28;20256;-52
2023/01/15 17:02:19;;;;;;;13.45;4.60;;;;;;;;;;10415854;28;20032;-52
2023/01/15 17:07:38;;;;;;;5.50;4.40;;;;;;;;;;10408416;28;20029;-54
2023/01/15 17:12:42;;;;;;;6.78;5.05;;;;;;;;;;10415198;28;20021;-53
2023/01/15 17:17:53;;;;;;;7.85;5.38;;;;;;;;;;10420795;28;20029;-53
2023/01/15 17:22:55;;;;;;;6.45;5.05;;;;;;;;;;10424007;28;20104;-54
2023/01/15 17:27:58;;;;;;;9.07;5.40;;;;;;;;;;10423170;28;20021;-52
2023/01/15 17:33:05;;;;;;;11.27;5.85;;;;;;;;;;10423037;28;20472;-51
2023/01/15 17:38:10;;;;;;;11.15;5.90;;;;;;;;;;10422565;28;20049;-48
2023/01/15 17:43:14;;;;;;;8.68;5.32;;;;;;;;;;10423118;28;20041;-53
2023/01/15 17:48:17;;;;;;;8.45;5.38;;;;;;;;;;10422298;28;20094;-50
2023/01/15 17:53:18;;;;;;;6.10;5.20;;;;;;;;;;10422073;28;20033;-53
2023/01/15 18:09:12;;;;;;;7.22;5.40;;;;;;;;;;10422252;28;20465;-53
2023/01/15 18:14:14;;;;;;;11.85;6.10;;;;;;;;;;10421393;28;20025;-52
2023/01/15 18:19:15;;;;;;;7.40;5.43;;;;;;;;;;10421712;28;20053;-52
2023/01/15 18:24:20;;;;;;;7.05;5.30;;;;;;;;;;10421024;28;20048;-47
2023/01/15 18:29:22;;;;;;;7.30;4.90;;;;;;;;;;10419835;28;20034;-53
2023/01/15 18:34:24;;;;;;;6.68;5.32;;;;;;;;;;10420634;28;20029;-55
2023/01/15 18:39:24;;;;;;;5.78;4.90;;;;;;;;;;10417692;28;20487;-53
2023/01/15 18:49:45;;;;;;;9.32;5.18;;;;;;;;;;10403618;28;20029;-55
2023/01/15 18:54:46;;;;;;;6.97;5.28;;;;;;;;;;10389810;28;20021;-58
2023/01/15 18:59:47;;;;;;;7.05;5.50;;;;;;;;;;10411237;28;20034;-57
2023/01/15 19:04:47;;;;;;;8.25;5.25;;;;;;;;;;10402948;28;20022;-54
2023/01/15 19:09:48;;;;;;;7.43;5.00;;;;;;;;;;10412071;28;20087;-49
2023/01/15 19:20:13;;;;;;;6.63;4.97;;;;;;;;;;10409456;28;20025;-55
2023/01/15 19:25:13;;;;;;;7.72;5.60;;;;;;;;;;10401438;28;20507;-56
2023/01/15 19:30:14;;;;;;;6.13;5.10;;;;;;;;;;10408468;28;20064;-56
2023/01/15 19:35:15;;;;;;;7.97;5.35;;;;;;;;;;10406656;28;20045;-57
2023/01/15 19:50:42;;;;;;;9.93;5.57;;;;;;;;;;10407793;28;20029;-58
2023/01/15 19:55:44;;;;;;;6.47;5.03;;;;;;;;;;10409003;28;20456;-56
2023/01/15 20:00:47;;;;;;;8.52;5.68;;;;;;;;;;10406379;28;20124;-56
2023/01/15 20:05:48;;;;;;;9.82;5.60;;;;;;;;;;10405836;28;20057;-50
2023/01/15 20:10:49;;;;;;;9.48;5.25;;;;;;;;;;10407972;28;20033;-46
2023/01/15 20:15:50;;;;;;;5.90;5.20;;;;;;;;;;10407745;28;20030;-50
2023/01/15 20:20:54;;;;;;;6.20;5.05;;;;;;;;;;10407920;28;20526;-52
2023/01/15 20:26:04;;;;;;;9.60;5.53;;;;;;;;;;10403978;28;20029;-58
2023/01/15 20:31:05;;;;;;;13.43;6.55;;;;;;;;;;10407576;28;20029;-56
2023/01/15 20:36:07;;;;;;;9.30;5.82;;;;;;;;;;10406196;28;20052;-59
2023/01/15 20:46:28;;;;;;;9.82;5.70;;;;;;;;;;10384240;28;20046;-55
2023/01/15 20:51:29;;;;;;;7.35;5.35;;;;;;;;;;10334857;28;20421;-53
2023/01/15 20:56:30;;;;;;;12.65;5.78;;;;;;;;;;10358420;28;20030;-56
2023/01/15 21:01:30;;;;;;;11.82;5.38;;;;;;;;;;10364651;28;20026;-54
2023/01/15 21:06:31;;;;;;;9.02;5.65;;;;;;;;;;10364911;28;20048;-55
2023/01/15 21:11:32;;;;;;;8.30;5.30;;;;;;;;;;10361076;28;20159;-47
2023/01/15 21:16:33;;;;;;;7.47;5.10;;;;;;;;;;10364670;28;20034;-49
2023/01/15 21:21:34;;;;;;;8.80;5.93;;;;;;;;;;10350034;28;20548;-59
2023/01/15 21:26:35;;;;;;;8.30;5.38;;;;;;;;;;10355051;28;20037;-54
2023/01/15 21:31:36;;;;;;;8.32;5.65;;;;;;;;;;10363282;28;20041;-56
2023/01/15 21:36:36;;;;;;;7.43;5.03;;;;;;;;;;10379738;28;20111;-59
2023/01/15 21:47:09;;;;;;;9.98;5.85;;;;;;;;;;10402814;28;20060;-57
2023/01/15 21:52:16;;;;;;;11.60;5.07;;;;;;;;;;10405724;28;20159;-59
2023/01/15 21:57:21;;;;;;;16.27;5.30;;;;;;;;;;10403789;28;20034;-60
2023/01/15 22:02:22;;;;;;;9.63;5.10;;;;;;;;;;10404348;28;20617;-60
2023/01/15 22:07:22;;;;;;;8.38;4.55;;;;;;;;;;10411723;28;20025;-59
2023/01/15 22:12:23;;;;;;;8.65;5.28;;;;;;;;;;10410846;28;20033;-56
2023/01/15 22:17:24;;;;;;;8.02;5.18;;;;;;;;;;10410997;28;20041;-59
2023/01/15 22:22:29;;;;;;;7.82;5.22;;;;;;;;;;10407658;28;20029;-57
2023/01/15 22:27:33;;;;;;;6.43;4.88;;;;;;;;;;10399597;28;20113;-58
2023/01/15 22:32:34;;;;;;;15.45;5.50;;;;;;;;;;10412417;28;20084;-52
2023/01/15 22:37:34;;;;;;;6.95;4.88;;;;;;;;;;10410409;28;20554;-50
2023/01/15 22:42:35;;;;;;;9.07;4.07;;;;;;;;;;10410188;28;20500;-57
2023/01/15 22:47:35;;;;;;;7.28;4.80;;;;;;;;;;10407617;28;20537;-58
2023/01/15 22:52:37;;;;;;;9.80;4.38;;;;;;;;;;10407863;28;20365;-52
2023/01/15 22:57:38;;;;;;;8.27;4.68;;;;;;;;;;10417459;28;20040;-58
2023/01/15 23:02:54;;;;;;;6.05;4.55;;;;;;;;;;10416588;28;20487;-60
2023/01/15 23:07:54;;;;;;;7.60;4.25;;;;;;;;;;10410086;28;20032;-57
2023/01/15 23:12:55;;;;;;;7.38;4.10;;;;;;;;;;10411340;28;20024;-49
2023/01/15 23:17:56;;;;;;;5.97;4.00;;;;;;;;;;10409406;28;20044;-58
2023/01/15 23:22:56;;;;;;;6.22;4.15;;;;;;;;;;10408304;28;20030;-59
2023/01/15 23:27:57;;;;;;;7.90;4.63;;;;;;;;;;10401259;28;20029;-60
2023/01/15 23:32:57;;;;;;;5.65;4.07;;;;;;;;;;10410325;28;20041;-57
2023/01/15 23:37:58;;;;;;;5.38;4.05;;;;;;;;;;10408805;28;20049;-57
2023/01/15 23:48:19;;;;;;;6.65;4.53;;;;;;;;;;10405773;28;20026;-57
2023/01/15 23:53:19;;;;;;;5.65;4.15;;;;;;;;;;10400854;28;20034;-59
2023/01/15 23:58:20;;;;;;;5.75;3.95;;;;;;;;;;10422351;28;20377;-51
